Center for Professional Development & Training
CPDT sessions are restricted to UNF faculty, staff and OPS employees, including student assistants.

Below are current open training sessions. Restricted or full sessions are not listed. Contact training@unf.edu for additional information.

Directions:
Register for classes by checking the appropriate box next to each class and selecting the Enrollment Form button.
For a description of the classes, check the appropriate box next to each class and select the Information button.
Current semester: Summer 2018
Start Date Start Time Stop Time Class Location Trainer Seats Taken /
Capacity
05-29-2018 10:00AM 12:00PM CCP 101 for Administration and Finance Employees (AF-300) 53/1430 Winfrey, Brandi 28 / 30
05-29-2018 1:30PM 4:30PM P-Card Concur Training (PUR-210) 12/4301 Durden, Denise 4 / 12
05-30-2018 9:00AM 11:00AM CMS Training: Beginner (ITS-118) 53/1400 Thompson, Katherine 14 / 15
06-01-2018 9:00AM 1:00PM Excel 2016 Level III - Advanced (PDT-327) 53/1400 Doug Leas 10 / 15
06-01-2018 9:00AM 10:30AM Foundation Accounting System Training (AF-310) 12/4301 Porter, Megan 9 / 12
06-01-2018 10:30AM 12:00PM Foundation Accounting System Training (AF-310) 12/4301 Porter, Megan 4 / 12
06-04-2018 1:30PM 4:30PM P-Card Concur Training (PUR-210) 53/1400 Durden, Denise 8 / 24
06-05-2018 2:00PM 4:00PM Concur Made Easy: Travel Requests, Booking, and Expenses (CON-302) 53/1400 Lee, Angela 11 / 24
06-05-2018 2:30PM 4:30PM Originating an ePAF (HR-126) 12/4301 Levine, Stefanie 5 / 12
06-06-2018 9:00AM 11:00AM CMS: Redesign Workshop (ITS-150) 53/1400 Thompson, Katherine 12 / 15
06-06-2018 2:30PM 4:00PM Awarding Scholarships for Student Travel (AA-100) 1/1306 Lee, Angela 0 / 15
06-08-2018 3:00PM 4:30PM Accepting Credit Card Payments: Payment Card Industry Data Security Standards Compliance (PCI DSS) (PUR-113) 53/1400 Lee, Angela 3 / 24
06-11-2018 9:00AM 10:30AM Foundation Accounting System Training (AF-310) 12/4301 Porter, Megan 1 / 12
06-11-2018 10:30AM 12:00PM Foundation Accounting System Training (AF-310) 12/4301 Porter, Megan 2 / 12
06-12-2018 9:00AM 11:00AM Finance Self Service (BGT-100) 53/1400 Byrd, Erin 7 / 24
06-12-2018 1:00PM 3:00PM Creating and Managing Online Surveys Level 1 (CIRT-101) 12/4301 Harden, Jessica 7 / 12
06-12-2018 2:00PM 4:30PM Policies and Procedures for Travel Training (CON-303) 53/1400 Lee, Angela 4 / 24
06-13-2018 9:00AM 11:00AM OASys Position Management Training (HR-200) 53/1400 Michael Fritts 2 / 24
06-13-2018 12:00PM 1:00PM Back to the Basics Nutrition Series: Carbs, Proteins, Fats (SA-230) 58E/2100 Schooley, Kelly 9 / 16
06-13-2018 2:30PM 4:30PM OASys Applicant Tracking (HR-201) 53/1400 Jackson, Ricarla 1 / 24
06-14-2018 9:00AM 12:30PM Safe Space: Cultural Competency in LGBTQ Identities (SA-133) 58E/2100 SACR Kaitlin Legg 15 / 15
06-14-2018 10:30AM 12:30PM Procurement 101 (PUR-120) 53/1400 Asmuth, Shawn 8 / 24
06-14-2018 2:00PM 4:30PM iContracts (CON-108) 53/1400 Lee, Angela 3 / 24
06-15-2018 9:00AM 11:00AM From Pulps to Present Day: Diversity Lessons in Comics (PDT-700) 1/1306 Harrison, Kelly 9 / 15
06-19-2018 1:30PM 4:30PM P-Card Concur Training (PUR-210) 53/1400 Durden, Denise 2 / 24
06-19-2018 2:00PM 3:00PM Best Business Practices (IA-110) 12/2405 Hartman, Robb 8 / 30
06-20-2018 9:00AM 11:00AM CMS Training: Beginner (ITS-118) 53/1400 Thompson, Katherine 2 / 15
06-20-2018 9:00AM 10:30AM University Property and Records Management (AF-110) 12/4301 Mousa, James 2 / 12
06-21-2018 1:00PM 2:30PM Information for Search and Screen Committee Members & Title IX Briefing (EOD-143) 12/2405 Haft, Katie 0 / 30
06-22-2018 9:30AM 11:30AM Debunked: FMLA, Workers Comp and the ADA (HR-155) 1/1306 Neidhardt, Jennifer 2 / 15
06-27-2018 9:00AM 10:00AM CMS: Website Accessibility and Workshop (ITS-128) 53/1400 Thompson, Katherine 10 / 15
06-27-2018 12:00PM 1:00PM Back to the Basics Nutrition Series: Reading Food Labels & Added Sugar (SA-231) 58E/2100 Schooley, Kelly 7 / 16
06-28-2018 2:00PM 4:00PM Concur Made Easy: Travel Requests, Booking, and Expenses (CON-302) 53/1400 Lee, Angela 2 / 24
07-10-2018 2:00PM 4:30PM Policies and Procedures for Travel Training (CON-303) 53/1400 Lee, Angela 1 / 24
07-11-2018 9:00AM 11:00AM CMS Training: Beginner (ITS-118) 53/1400 Thompson, Katherine 0 / 15
07-11-2018 11:00AM 12:00PM Book Club (PDT-602) 12/2405 Harrison, Kelly 13 / 20
07-11-2018 12:00PM 1:00PM Back to the Basics Nutrition Series: Debunking Nutrition Myths (SA-232) 58E/2100 Schooley, Kelly 6 / 16
07-11-2018 1:30PM 4:30PM P-Card Concur Training (PUR-210) 12/4301 Durden, Denise 0 / 12
07-12-2018 10:00AM 12:00PM Concur Made Easy: Travel Requests, Booking, and Expenses (CON-302) 53/1400 Lee, Angela 0 / 24
07-12-2018 10:30AM 12:00PM Information for Search and Screen Committee Members & Title IX Briefing (EOD-143) 12/2405 Haft, Katie 3 / 30
07-12-2018 2:00PM 3:30PM Accepting Credit Card Payments: Payment Card Industry Data Security Standards Compliance (PCI DSS) (PUR-113) 53/1400 Lee, Angela 0 / 24
07-13-2018 1:30PM 3:30PM Finance Self Service (BGT-100) 12/4301 Byrd, Erin 3 / 12
07-17-2018 2:00PM 4:30PM iContracts (CON-108) 53/1400 Lee, Angela 3 / 24
07-18-2018 9:00AM 11:00AM CMS: Redesign Workshop (ITS-150) 53/1400 Thompson, Katherine 3 / 15
07-18-2018 11:30AM 1:30PM Originating an ePAF (HR-126) 53/1400 Levine, Stefanie 1 / 24
07-18-2018 2:00PM 4:00PM Concur Made Easy: Travel Requests, Booking, and Expenses (CON-302) 53/1400 Lee, Angela 0 / 24
07-19-2018 2:00PM 3:00PM Best Business Practices (IA-110) 12/2405 Hartman, Robb 4 / 30
07-19-2018 2:30PM 4:30PM OASys Applicant Tracking (HR-201) 53/1400 Jackson, Ricarla 0 / 24
07-25-2018 1:00PM 4:30PM Safe Space: Cultural Competency in LGBTQ Identities (SA-133) 58E/2100 SACR Kaitlin Legg 8 / 15
07-25-2018 1:30PM 4:30PM P-Card Concur Training (PUR-210) 53/1400 Durden, Denise 0 / 24
07-26-2018 9:00AM 11:00AM Administering Performance Appraisals (HR-210) 53/1430 Harrison, Kelly 6 / 30
07-26-2018 2:00PM 3:30PM Quillix Capture 5 (ITS-131) 12/4301 Lee, Angela 1 / 12
07-26-2018 3:30PM 4:30PM OnBase Web Client Training (ITS-113) 12/4301 Lee, Angela 2 / 12
07-31-2018 2:00PM 4:30PM Policies and Procedures for Travel Training (CON-303) 53/1400 Lee, Angela 0 / 24
08-01-2018 9:00AM 11:00AM CMS Training: Beginner (ITS-118) 53/1400 Thompson, Katherine 1 / 15
08-01-2018 2:30PM 4:00PM Awarding Scholarships for Student Travel (AA-100) 1/1306 Lee, Angela 0 / 15
08-02-2018 1:30PM 4:30PM P-Card Concur Training (PUR-210) 53/1400 Durden, Denise 0 / 24
08-03-2018 10:00AM 12:00PM Concur Made Easy: Travel Requests, Booking, and Expenses (CON-302) 53/1400 Lee, Angela 0 / 24
08-06-2018 1:00PM 2:30PM Information for Search and Screen Committee Members & Title IX Briefing (EOD-143) 12/2405 Haft, Katie 0 / 30
08-07-2018 9:00AM 11:00AM OASys Applicant Tracking (HR-201) 12/4301 Levine, Stefanie 0 / 12
08-07-2018 1:30PM 3:30PM Finance Self Service (BGT-100) 53/1400 Byrd, Erin 0 / 24
08-07-2018 2:30PM 4:30PM OASys Position Management Training (HR-200) 12/4301 Michael Fritts 0 / 12
08-08-2018 9:00AM 10:00AM CMS: Website Accessibility and Workshop (ITS-128) 53/1400 Thompson, Katherine 1 / 15
08-09-2018 10:30AM 12:30PM Procurement 101 (PUR-120) 53/1400 Asmuth, Shawn 0 / 24
08-09-2018 2:00PM 4:30PM iContracts (CON-108) 53/1400 Lee, Angela 0 / 24
08-10-2018 9:00AM 12:00PM A Brief History of Comic Books and Their Impact on Society (PDT-678) 1/1306 Harrison, Kelly 2 / 15
08-10-2018 3:00PM 4:30PM Accepting Credit Card Payments: Payment Card Industry Data Security Standards Compliance (PCI DSS) (PUR-113) 53/1400 Lee, Angela 0 / 24